createdAt,value
2018-12-21T00:00:54.840Z,1008.86
2018-12-21T00:01:54.847Z,1008.92
2018-12-21T00:02:54.826Z,1008.87
2018-12-21T00:03:54.806Z,1008.87
2018-12-21T00:04:54.807Z,1008.87
2018-12-21T00:05:54.784Z,1008.86
2018-12-21T00:06:54.787Z,1008.88
2018-12-21T00:07:54.761Z,1008.81
2018-12-21T00:08:54.751Z,1008.80
2018-12-21T00:09:54.742Z,1008.85
2018-12-21T00:10:54.729Z,1008.84
2018-12-21T00:11:54.728Z,1008.82
2018-12-21T00:12:54.708Z,1008.83
2018-12-21T00:13:54.698Z,1008.86
2018-12-21T00:14:54.687Z,1008.81
2018-12-21T00:15:54.766Z,1008.76
2018-12-21T00:16:54.675Z,1008.75
2018-12-21T00:17:54.654Z,1008.77
2018-12-21T00:18:54.642Z,1008.76
2018-12-21T00:19:54.639Z,1008.74
2018-12-21T00:20:54.622Z,1008.76
2018-12-21T00:21:54.619Z,1008.75
2018-12-21T00:22:54.597Z,1008.73
2018-12-21T00:23:54.587Z,1008.70
2018-12-21T00:24:54.574Z,1008.73
2018-12-21T00:25:54.568Z,1008.74
2018-12-21T00:26:54.566Z,1008.72
2018-12-21T00:27:54.542Z,1008.71
2018-12-21T00:28:54.533Z,1008.72
2018-12-21T00:29:54.522Z,1008.67
2018-12-21T00:30:54.516Z,1008.69
2018-12-21T00:31:54.512Z,1008.66
2018-12-21T00:32:54.489Z,1008.64
2018-12-21T00:33:54.478Z,1008.63
2018-12-21T00:34:54.468Z,1008.61
2018-12-21T00:35:54.455Z,1008.69
2018-12-21T00:36:54.467Z,1008.64
2018-12-21T00:37:54.432Z,1008.61
2018-12-21T00:38:54.422Z,1008.56
2018-12-21T00:39:54.411Z,1008.53
2018-12-21T00:40:54.402Z,1008.55
2018-12-21T00:41:54.399Z,1008.61
2018-12-21T00:42:54.379Z,1008.51
2018-12-21T00:43:54.390Z,1008.54
2018-12-21T00:44:54.362Z,1008.55
2018-12-21T00:45:54.346Z,1008.53
2018-12-21T00:46:54.355Z,1008.60
2018-12-21T00:47:54.329Z,1008.64
2018-12-21T00:48:54.314Z,1008.65
2018-12-21T00:49:54.303Z,1008.53
2018-12-21T00:50:54.300Z,1008.59
2018-12-21T00:51:54.317Z,1008.56
2018-12-21T00:52:54.270Z,1008.54
2018-12-21T00:53:54.260Z,1008.57
2018-12-21T00:54:54.251Z,1008.62
2018-12-21T00:55:54.238Z,1008.64
2018-12-21T00:56:54.258Z,1008.60
2018-12-21T00:57:54.230Z,1008.62
2018-12-21T00:58:54.208Z,1008.64
2018-12-21T00:59:54.199Z,1008.56
2018-12-21T01:00:54.184Z,1008.60
2018-12-21T01:01:54.178Z,1008.63
2018-12-21T01:02:54.173Z,1008.56
2018-12-21T01:03:54.154Z,1008.63
2018-12-21T01:04:54.145Z,1008.68
2018-12-21T01:05:54.134Z,1008.74
2018-12-21T01:06:54.123Z,1008.71
2018-12-21T01:07:54.122Z,1008.69
2018-12-21T01:08:54.102Z,1008.67
2018-12-21T01:09:54.088Z,1008.72
2018-12-21T01:10:54.076Z,1008.71
2018-12-21T01:11:54.065Z,1008.76
2018-12-21T01:12:54.070Z,1008.78
2018-12-21T01:13:54.045Z,1008.77
2018-12-21T01:14:54.034Z,1008.76
2018-12-21T01:15:54.024Z,1008.80
2018-12-21T01:16:54.012Z,1008.71
2018-12-21T01:17:54.016Z,1008.72
2018-12-21T01:18:53.994Z,1008.78
2018-12-21T01:19:53.981Z,1008.80
2018-12-21T01:20:53.969Z,1008.73
2018-12-21T01:21:53.960Z,1008.76
2018-12-21T01:22:53.966Z,1008.78
2018-12-21T01:23:53.937Z,1008.76
2018-12-21T01:24:53.926Z,1008.76
2018-12-21T01:25:53.917Z,1008.78
2018-12-21T01:26:53.907Z,1008.77
2018-12-21T01:27:53.917Z,1008.76
2018-12-21T01:28:53.884Z,1008.77
2018-12-21T01:29:53.874Z,1008.79
2018-12-21T01:30:53.862Z,1008.75
2018-12-21T01:31:53.853Z,1008.76
2018-12-21T01:32:53.853Z,1008.76
2018-12-21T01:33:53.830Z,1008.81
2018-12-21T01:34:53.819Z,1008.78
2018-12-21T01:35:53.810Z,1008.71
2018-12-21T01:36:53.800Z,1008.68
2018-12-21T01:37:53.799Z,1008.72
2018-12-21T01:38:53.776Z,1008.70
2018-12-21T01:39:53.772Z,1008.67
2018-12-21T01:40:53.755Z,1008.60
2018-12-21T01:41:53.748Z,1008.72
2018-12-21T01:42:53.733Z,1008.58
2018-12-21T01:43:53.737Z,1008.60
2018-12-21T01:44:53.716Z,1008.56
2018-12-21T01:45:53.703Z,1008.58
2018-12-21T01:46:53.691Z,1008.58
2018-12-21T01:47:53.678Z,1008.57
2018-12-21T01:48:53.680Z,1008.56
2018-12-21T01:49:53.658Z,1008.51
2018-12-21T01:50:53.648Z,1008.50
2018-12-21T01:51:53.635Z,1008.50
2018-12-21T01:52:53.626Z,1008.48
2018-12-21T01:53:53.649Z,1008.47
2018-12-21T01:54:53.607Z,1008.50
2018-12-21T01:55:53.593Z,1008.52
2018-12-21T01:56:53.586Z,1008.44
2018-12-21T01:57:53.571Z,1008.38
2018-12-21T01:58:53.574Z,1008.43
2018-12-21T01:59:53.551Z,1008.42
2018-12-21T02:00:53.540Z,1008.49
2018-12-21T02:01:53.532Z,1008.43
2018-12-21T02:02:53.519Z,1008.45
2018-12-21T02:03:53.519Z,1008.36
2018-12-21T02:04:53.497Z,1008.41
2018-12-21T02:05:53.485Z,1008.42
2018-12-21T02:06:53.480Z,1008.40
2018-12-21T02:07:53.474Z,1008.42
2018-12-21T02:08:53.466Z,1008.37
2018-12-21T02:09:53.442Z,1008.39
2018-12-21T02:10:53.432Z,1008.35
2018-12-21T02:11:53.424Z,1008.32
2018-12-21T02:12:53.417Z,1008.37
2018-12-21T02:13:53.417Z,1008.29
2018-12-21T02:14:53.390Z,1008.27
2018-12-21T02:15:53.380Z,1008.32
2018-12-21T02:16:53.371Z,1008.33
2018-12-21T02:17:53.361Z,1008.33
2018-12-21T02:18:53.355Z,1008.23
2018-12-21T02:19:53.335Z,1008.27
2018-12-21T02:20:53.325Z,1008.26
2018-12-21T02:21:55.955Z,1008.26
2018-12-21T02:22:53.305Z,1008.22
2018-12-21T02:23:53.312Z,1008.22
2018-12-21T02:24:53.286Z,1008.25
2018-12-21T02:25:53.269Z,1008.24
2018-12-21T02:26:53.263Z,1008.21
2018-12-21T02:27:53.249Z,1008.22
2018-12-21T02:28:53.251Z,1008.19
2018-12-21T02:29:53.229Z,1008.21
2018-12-21T02:30:53.217Z,1008.15
2018-12-21T02:31:53.209Z,1008.23
2018-12-21T02:32:53.194Z,1008.19
2018-12-21T02:33:53.216Z,1008.21
2018-12-21T02:34:53.176Z,1008.15
2018-12-21T02:35:53.170Z,1008.26
2018-12-21T02:36:53.156Z,1008.18
2018-12-21T02:37:53.140Z,1008.20
2018-12-21T02:38:53.130Z,1008.21
2018-12-21T02:39:53.131Z,1008.22
2018-12-21T02:40:53.111Z,1008.18
2018-12-21T02:41:53.108Z,1008.19
2018-12-21T02:42:53.088Z,1008.17
2018-12-21T02:43:53.076Z,1008.18
2018-12-21T02:44:53.123Z,1008.20
2018-12-21T02:45:53.054Z,1008.23
2018-12-21T02:46:53.073Z,1008.20
2018-12-21T02:47:53.034Z,1008.28
2018-12-21T02:48:53.025Z,1008.17
2018-12-21T02:49:53.022Z,1008.24
2018-12-21T02:50:53.008Z,1008.28
2018-12-21T02:51:52.992Z,1008.19
2018-12-21T02:52:52.978Z,1008.17
2018-12-21T02:53:52.985Z,1008.19
2018-12-21T02:54:52.972Z,1008.23
2018-12-21T02:55:52.951Z,1008.16
2018-12-21T02:56:52.967Z,1008.18
2018-12-21T02:57:52.924Z,1008.15
2018-12-21T02:58:52.922Z,1008.16
2018-12-21T02:59:52.917Z,1008.20
2018-12-21T03:00:52.894Z,1008.15
2018-12-21T03:01:52.882Z,1008.16
2018-12-21T03:02:52.940Z,1008.10
2018-12-21T03:03:52.865Z,1008.08
2018-12-21T03:04:52.861Z,1008.05
2018-12-21T03:05:52.848Z,1008.13
2018-12-21T03:06:52.828Z,1008.10
2018-12-21T03:07:52.819Z,1008.11
2018-12-21T03:08:52.808Z,1008.03
2018-12-21T03:09:52.808Z,1008.06
2018-12-21T03:10:52.790Z,1008.02
2018-12-21T03:11:52.778Z,1008.07
2018-12-21T03:12:52.764Z,1008.04
2018-12-21T03:13:52.752Z,1008.08
2018-12-21T03:14:52.757Z,1007.98
2018-12-21T03:15:52.734Z,1008.03
2018-12-21T03:16:52.727Z,1007.96
2018-12-21T03:17:52.711Z,1008.01
2018-12-21T03:18:52.709Z,1007.97
2018-12-21T03:19:52.699Z,1007.99
2018-12-21T03:20:52.677Z,1007.89
2018-12-21T03:21:52.672Z,1007.99
2018-12-21T03:22:52.658Z,1008.02
2018-12-21T03:23:52.644Z,1008.00
2018-12-21T03:24:52.653Z,1007.91
2018-12-21T03:25:52.625Z,1008.00
2018-12-21T03:26:52.611Z,1007.97
2018-12-21T03:27:52.604Z,1007.97
2018-12-21T03:28:52.590Z,1008.00
2018-12-21T03:29:52.625Z,1007.98
2018-12-21T03:30:52.572Z,1008.03
2018-12-21T03:31:52.563Z,1008.05
2018-12-21T03:32:52.553Z,1008.04
2018-12-21T03:33:52.549Z,1007.99
2018-12-21T03:34:52.537Z,1007.99
2018-12-21T03:35:52.529Z,1007.98
2018-12-21T03:36:52.506Z,1007.92
2018-12-21T03:37:52.497Z,1007.95
2018-12-21T03:38:52.492Z,1007.97
2018-12-21T03:39:52.479Z,1007.93
2018-12-21T03:40:52.475Z,1007.94
2018-12-21T03:41:52.452Z,1007.92
2018-12-21T03:42:52.441Z,1007.86
2018-12-21T03:43:52.429Z,1007.85
2018-12-21T03:44:52.422Z,1007.90
2018-12-21T03:45:52.425Z,1007.89
2018-12-21T03:46:52.402Z,1007.89
2018-12-21T03:47:52.385Z,1007.83
2018-12-21T03:48:52.378Z,1007.90
2018-12-21T03:49:52.369Z,1007.84
2018-12-21T03:50:52.376Z,1007.83
2018-12-21T03:51:52.343Z,1007.79
2018-12-21T03:52:52.336Z,1007.71
2018-12-21T03:53:52.320Z,1007.78
2018-12-21T03:54:52.314Z,1007.78
2018-12-21T03:55:52.313Z,1007.73
2018-12-21T03:56:52.293Z,1007.79
2018-12-21T03:57:52.280Z,1007.77
2018-12-21T03:58:52.269Z,1007.72
2018-12-21T03:59:52.263Z,1007.70
2018-12-21T04:00:52.259Z,1007.70
2018-12-21T04:01:52.235Z,1007.66
2018-12-21T04:02:52.226Z,1007.67
2018-12-21T04:03:52.213Z,1007.68
2018-12-21T04:04:52.204Z,1007.64
2018-12-21T04:05:52.231Z,1007.64
2018-12-21T04:06:52.181Z,1007.66
2018-12-21T04:07:52.173Z,1007.68
2018-12-21T04:08:52.159Z,1007.65
2018-12-21T04:09:52.146Z,1007.66
2018-12-21T04:10:52.137Z,1007.66
2018-12-21T04:11:52.144Z,1007.58
2018-12-21T04:12:52.122Z,1007.67
2018-12-21T04:13:52.105Z,1007.59
2018-12-21T04:14:52.094Z,1007.54
2018-12-21T04:15:52.098Z,1007.56
2018-12-21T04:16:52.091Z,1007.49
2018-12-21T04:17:52.061Z,1007.54
2018-12-21T04:18:52.052Z,1007.54
2018-12-21T04:19:52.041Z,1007.59
2018-12-21T04:20:52.030Z,1007.56
2018-12-21T04:21:52.028Z,1007.53
2018-12-21T04:22:52.007Z,1007.55
2018-12-21T04:23:51.996Z,1007.54
2018-12-21T04:24:51.989Z,1007.58
2018-12-21T04:25:51.979Z,1007.53
2018-12-21T04:26:51.977Z,1007.55
2018-12-21T04:27:51.962Z,1007.51
2018-12-21T04:28:51.947Z,1007.50
2018-12-21T04:29:51.935Z,1007.48
2018-12-21T04:30:51.922Z,1007.58
2018-12-21T04:31:51.962Z,1007.49
2018-12-21T04:32:51.901Z,1007.59
2018-12-21T04:33:51.889Z,1007.53
2018-12-21T04:34:51.878Z,1007.55
2018-12-21T04:35:51.871Z,1007.50
2018-12-21T04:36:51.857Z,1007.51
2018-12-21T04:37:51.859Z,1007.56
2018-12-21T04:38:51.836Z,1007.60
2018-12-21T04:39:51.824Z,1007.53
2018-12-21T04:40:51.813Z,1007.53
2018-12-21T04:41:51.809Z,1007.60
2018-12-21T04:42:51.802Z,1007.54
2018-12-21T04:43:51.784Z,1007.57
2018-12-21T04:44:51.780Z,1007.52
2018-12-21T04:45:51.759Z,1007.58
2018-12-21T04:46:51.750Z,1007.54
2018-12-21T04:47:51.751Z,1007.53
2018-12-21T04:48:51.729Z,1007.57
2018-12-21T04:49:51.718Z,1007.51
2018-12-21T04:50:51.706Z,1007.58
2018-12-21T04:51:51.698Z,1007.52
2018-12-21T04:52:51.694Z,1007.47
2018-12-21T04:53:51.671Z,1007.50
2018-12-21T04:54:51.660Z,1007.46
2018-12-21T04:55:51.649Z,1007.43
2018-12-21T04:56:51.639Z,1007.42
2018-12-21T04:57:51.647Z,1007.41
2018-12-21T04:58:51.619Z,1007.45
2018-12-21T04:59:51.608Z,1007.43
2018-12-21T05:00:51.596Z,1007.38
2018-12-21T05:01:51.587Z,1007.37
2018-12-21T05:02:51.589Z,1007.40
2018-12-21T05:03:51.565Z,1007.43
2018-12-21T05:04:51.560Z,1007.40
2018-12-21T05:05:51.542Z,1007.37
2018-12-21T05:06:51.529Z,1007.35
2018-12-21T05:07:51.529Z,1007.36
2018-12-21T05:08:51.511Z,1007.37
2018-12-21T05:09:51.500Z,1007.28
2018-12-21T05:10:51.490Z,1007.33
2018-12-21T05:11:51.478Z,1007.30
2018-12-21T05:12:51.557Z,1007.36
2018-12-21T05:13:51.460Z,1007.30
2018-12-21T05:14:51.444Z,1007.30
2018-12-21T05:15:51.440Z,1007.39
2018-12-21T05:16:51.446Z,1007.33
2018-12-21T05:17:51.425Z,1007.25
2018-12-21T05:18:51.410Z,1007.23
2018-12-21T05:19:51.391Z,1007.22
2018-12-21T05:20:51.382Z,1007.27
2018-12-21T05:21:51.372Z,1007.27
2018-12-21T05:22:52.389Z,1007.30
2018-12-21T05:23:51.362Z,1007.19
2018-12-21T05:24:51.337Z,1007.25
2018-12-21T05:25:51.326Z,1007.24
2018-12-21T05:26:51.319Z,1007.23
2018-12-21T05:27:51.304Z,1007.25
2018-12-21T05:28:51.306Z,1007.25
2018-12-21T05:29:51.286Z,1007.22
2018-12-21T05:30:51.274Z,1007.23
2018-12-21T05:31:51.264Z,1007.11
2018-12-21T05:32:51.251Z,1007.20
2018-12-21T05:33:51.257Z,1007.23
2018-12-21T05:34:51.236Z,1007.23
2018-12-21T05:35:51.219Z,1007.24
2018-12-21T05:36:51.208Z,1007.24
2018-12-21T05:37:51.201Z,1007.16
2018-12-21T05:38:51.204Z,1007.21
2018-12-21T05:39:51.175Z,1007.16
2018-12-21T05:40:51.166Z,1007.18
2018-12-21T05:41:51.157Z,1007.17
2018-12-21T05:42:51.143Z,1007.13
2018-12-21T05:43:51.148Z,1007.15
2018-12-21T05:44:51.121Z,1007.16
2018-12-21T05:45:51.111Z,1007.12
2018-12-21T05:46:51.099Z,1007.15
2018-12-21T05:47:51.088Z,1007.10
2018-12-21T05:48:51.089Z,1007.12
2018-12-21T05:49:51.067Z,1007.05
2018-12-21T05:50:51.054Z,1007.05
2018-12-21T05:51:51.042Z,1007.07
2018-12-21T05:52:51.034Z,1007.00
2018-12-21T05:53:51.037Z,1007.01
2018-12-21T05:54:51.013Z,1007.01
2018-12-21T05:55:51.008Z,1007.01
2018-12-21T05:56:50.990Z,1006.97
2018-12-21T05:57:50.979Z,1006.94
2018-12-21T05:58:50.980Z,1007.01
2018-12-21T05:59:50.962Z,1006.96
2018-12-21T06:00:50.945Z,1006.95
2018-12-21T06:01:50.935Z,1006.91
2018-12-21T06:02:50.925Z,1006.90
2018-12-21T06:03:50.942Z,1006.81
2018-12-21T06:04:50.902Z,1006.90
2018-12-21T06:05:50.899Z,1006.80
2018-12-21T06:06:50.884Z,1006.77
2018-12-21T06:07:50.871Z,1006.76
2018-12-21T06:08:51.973Z,1006.74
2018-12-21T06:09:50.857Z,1006.74
2018-12-21T06:10:50.837Z,1006.72
2018-12-21T06:11:50.828Z,1006.67
2018-12-21T06:12:50.817Z,1006.67
2018-12-21T06:13:50.803Z,1006.69
2018-12-21T06:14:50.803Z,1006.71
2018-12-21T06:15:50.782Z,1006.66
2018-12-21T06:16:50.771Z,1006.68
2018-12-21T06:17:50.760Z,1006.69
2018-12-21T06:18:50.749Z,1006.62
2018-12-21T06:19:50.749Z,1006.56
2018-12-21T06:20:50.728Z,1006.56
2018-12-21T06:21:50.717Z,1006.49
2018-12-21T06:22:50.710Z,1006.45
2018-12-21T06:23:50.694Z,1006.51
2018-12-21T06:24:50.694Z,1006.55
2018-12-21T06:25:50.673Z,1006.48
2018-12-21T06:26:50.663Z,1006.45
2018-12-21T06:27:50.651Z,1006.39
2018-12-21T06:28:50.649Z,1006.46
2018-12-21T06:29:50.640Z,1006.39
2018-12-21T06:30:50.618Z,1006.36
2018-12-21T06:31:50.611Z,1006.37
2018-12-21T06:32:50.604Z,1006.28
2018-12-21T06:33:50.586Z,1006.27
2018-12-21T06:34:50.614Z,1006.25
2018-12-21T06:35:50.564Z,1006.24
2018-12-21T06:36:50.559Z,1006.29
2018-12-21T06:37:50.543Z,1006.25
2018-12-21T06:38:50.533Z,1006.12
2018-12-21T06:39:50.527Z,1006.11
2018-12-21T06:40:50.529Z,1006.13
2018-12-21T06:41:50.499Z,1006.11
2018-12-21T06:42:50.822Z,1006.30
2018-12-21T06:43:50.479Z,1006.17
2018-12-21T06:44:50.468Z,1006.17
2018-12-21T06:45:50.469Z,1006.08
2018-12-21T06:46:50.453Z,1006.19
2018-12-21T06:47:50.472Z,1006.15
2018-12-21T06:48:50.426Z,1006.13
2018-12-21T06:49:50.414Z,1006.07
2018-12-21T06:50:50.418Z,1006.12
2018-12-21T06:51:50.393Z,1006.11
2018-12-21T06:52:50.383Z,1006.10
2018-12-21T06:53:50.374Z,1006.08
2018-12-21T06:54:50.360Z,1006.17
2018-12-21T06:55:50.360Z,1006.11
2018-12-21T06:56:50.348Z,1006.06
2018-12-21T06:57:50.338Z,1006.06
2018-12-21T06:58:50.315Z,1006.11
2018-12-21T06:59:50.304Z,1006.08
2018-12-21T07:00:50.306Z,1006.00
2018-12-21T07:01:50.281Z,1006.01
2018-12-21T07:02:50.284Z,1006.01
2018-12-21T07:03:50.262Z,1006.03
2018-12-21T07:04:50.250Z,1006.01
2018-12-21T07:05:50.249Z,1006.01
2018-12-21T07:06:50.226Z,1005.91
2018-12-21T07:07:50.215Z,1005.96
2018-12-21T07:08:50.205Z,1005.91
2018-12-21T07:09:50.195Z,1005.90
2018-12-21T07:10:50.194Z,1005.89
2018-12-21T07:11:50.171Z,1005.90
2018-12-21T07:12:50.161Z,1005.85
2018-12-21T07:13:50.154Z,1005.86
2018-12-21T07:14:50.142Z,1005.92
2018-12-21T07:15:50.150Z,1005.90
2018-12-21T07:16:50.118Z,1005.80
2018-12-21T07:17:50.107Z,1005.83
2018-12-21T07:18:50.098Z,1005.78
2018-12-21T07:19:50.086Z,1005.83
2018-12-21T07:20:50.084Z,1005.85
2018-12-21T07:21:50.063Z,1005.77
2018-12-21T07:22:50.052Z,1005.79
2018-12-21T07:23:50.273Z,1005.72
2018-12-21T07:24:50.043Z,1005.80
2018-12-21T07:25:50.475Z,1005.73
2018-12-21T07:26:50.011Z,1005.74
2018-12-21T07:27:50.008Z,1005.73
2018-12-21T07:28:50.147Z,1005.75
2018-12-21T07:29:50.184Z,1005.64
2018-12-21T07:30:50.767Z,1005.82
2018-12-21T07:31:49.957Z,1005.80
2018-12-21T07:32:49.945Z,1005.68
2018-12-21T07:33:49.936Z,1005.69
2018-12-21T07:34:49.927Z,1005.65
2018-12-21T07:35:49.914Z,1005.72
2018-12-21T07:36:49.915Z,1005.63
2018-12-21T07:37:49.891Z,1005.64
2018-12-21T07:38:49.887Z,1005.71
2018-12-21T07:39:49.868Z,1005.59
2018-12-21T07:40:49.858Z,1005.69
2018-12-21T07:41:49.857Z,1005.67
2018-12-21T07:42:49.834Z,1005.65
2018-12-21T07:43:49.825Z,1005.64
2018-12-21T07:44:49.812Z,1005.65
2018-12-21T07:45:49.803Z,1005.71
2018-12-21T07:46:49.811Z,1005.62
2018-12-21T07:47:49.794Z,1005.57
2018-12-21T07:48:49.774Z,1005.60
2018-12-21T07:49:49.757Z,1005.64
2018-12-21T07:50:49.748Z,1005.69
2018-12-21T07:51:49.747Z,1005.62
2018-12-21T07:52:49.723Z,1005.57
2018-12-21T07:53:49.722Z,1005.51
2018-12-21T07:54:49.702Z,1005.57
2018-12-21T07:55:49.695Z,1005.52
2018-12-21T07:56:49.701Z,1005.57
2018-12-21T07:57:49.672Z,1005.52
2018-12-21T07:58:56.937Z,1005.55
2018-12-21T07:59:50.647Z,1005.50
2018-12-21T08:00:49.635Z,1005.47
2018-12-21T08:01:49.676Z,1005.52
2018-12-21T08:02:49.615Z,1005.49
2018-12-21T08:03:49.600Z,1005.40
2018-12-21T08:04:49.599Z,1005.38
2018-12-21T08:05:49.581Z,1005.52
2018-12-21T08:06:49.571Z,1005.48
2018-12-21T08:07:49.568Z,1005.45
2018-12-21T08:08:49.546Z,1005.42
2018-12-21T08:09:49.537Z,1005.44
2018-12-21T08:10:49.525Z,1005.31
2018-12-21T08:11:49.550Z,1005.34
2018-12-21T08:12:49.520Z,1005.39
2018-12-21T08:13:49.490Z,1005.34
2018-12-21T08:14:49.480Z,1005.30
2018-12-21T08:15:49.471Z,1005.34
2018-12-21T08:16:49.457Z,1005.28
2018-12-21T08:17:49.460Z,1005.34
2018-12-21T08:18:49.437Z,1005.32
2018-12-21T08:19:49.429Z,1005.30
2018-12-21T08:20:49.412Z,1005.26
2018-12-21T08:21:49.410Z,1005.22
2018-12-21T08:22:49.418Z,1005.25
2018-12-21T08:23:49.382Z,1005.22
2018-12-21T08:24:49.371Z,1005.16
2018-12-21T08:25:49.359Z,1005.12
2018-12-21T08:26:49.348Z,1005.21
2018-12-21T08:27:49.359Z,1005.15
2018-12-21T08:28:49.326Z,1005.09
2018-12-21T08:29:49.321Z,1005.01
2018-12-21T08:30:49.303Z,1005.12
2018-12-21T08:31:49.293Z,1005.02
2018-12-21T08:32:49.306Z,1005.08
2018-12-21T08:33:49.273Z,1005.11
2018-12-21T08:34:49.259Z,1005.15
2018-12-21T08:35:49.249Z,1005.14
2018-12-21T08:36:49.239Z,1005.04
2018-12-21T08:37:49.242Z,1005.01
2018-12-21T08:38:49.214Z,1004.91
2018-12-21T08:39:49.206Z,1004.90
2018-12-21T08:40:49.193Z,1004.85
2018-12-21T08:41:49.184Z,1004.90
2018-12-21T08:42:49.186Z,1004.92
2018-12-21T08:43:49.163Z,1004.88
2018-12-21T08:44:49.149Z,1004.91
2018-12-21T08:45:49.139Z,1004.86
2018-12-21T08:46:49.126Z,1004.84
2018-12-21T08:47:49.131Z,1004.76
2018-12-21T08:48:49.105Z,1004.76
2018-12-21T08:49:49.103Z,1004.83
2018-12-21T08:50:49.084Z,1004.76
2018-12-21T08:51:49.075Z,1004.70
2018-12-21T08:52:49.070Z,1004.73
2018-12-21T08:53:52.616Z,1004.73
2018-12-21T08:54:49.040Z,1004.73
2018-12-21T08:55:49.027Z,1004.70
2018-12-21T08:56:49.017Z,1004.73
2018-12-21T08:57:49.021Z,1004.74
2018-12-21T08:58:48.994Z,1004.79
2018-12-21T08:59:48.984Z,1004.75
2018-12-21T09:00:48.976Z,1004.74
2018-12-21T09:01:48.969Z,1004.81
2018-12-21T09:02:48.963Z,1004.76
2018-12-21T09:03:48.939Z,1004.80
2018-12-21T09:04:48.930Z,1004.88
2018-12-21T09:05:48.936Z,1004.74
2018-12-21T09:06:48.907Z,1004.76
2018-12-21T09:07:48.911Z,1004.73
2018-12-21T09:08:48.888Z,1004.72
2018-12-21T09:09:48.873Z,1004.76
2018-12-21T09:10:48.865Z,1004.78
2018-12-21T09:11:48.852Z,1004.69
2018-12-21T09:12:48.863Z,1004.62
2018-12-21T09:13:48.830Z,1004.69
2018-12-21T09:14:48.817Z,1004.66
2018-12-21T09:15:48.807Z,1004.65
2018-12-21T09:16:48.799Z,1004.61
2018-12-21T09:17:48.796Z,1004.61
2018-12-21T09:18:48.775Z,1004.62
2018-12-21T09:19:48.767Z,1004.56
2018-12-21T09:20:48.755Z,1004.58
2018-12-21T09:21:48.745Z,1004.48
2018-12-21T09:22:48.765Z,1004.59
2018-12-21T09:23:48.719Z,1004.45
2018-12-21T09:24:48.708Z,1004.49
2018-12-21T09:25:48.699Z,1004.39
2018-12-21T09:26:48.685Z,1004.45
2018-12-21T09:27:48.676Z,1004.34
2018-12-21T09:28:48.683Z,1004.36
2018-12-21T09:29:48.653Z,1004.41
2018-12-21T09:30:48.641Z,1004.33
2018-12-21T09:31:48.630Z,1004.29
2018-12-21T09:32:48.621Z,1004.38
2018-12-21T09:33:48.619Z,1004.33
2018-12-21T09:34:48.597Z,1004.29
2018-12-21T09:35:48.585Z,1004.22
2018-12-21T09:36:48.576Z,1004.29
2018-12-21T09:37:48.563Z,1004.23
2018-12-21T09:38:48.560Z,1004.15
2018-12-21T09:39:48.655Z,1004.10
2018-12-21T09:40:48.534Z,1004.14
2018-12-21T09:41:48.538Z,1004.17
2018-12-21T09:42:48.511Z,1004.05
2018-12-21T09:43:48.513Z,1004.05
2018-12-21T09:44:52.433Z,1004.00
2018-12-21T09:45:48.484Z,1004.10
2018-12-21T09:46:48.467Z,1004.01
2018-12-21T09:47:48.453Z,1004.05
2018-12-21T09:48:48.453Z,1003.95
2018-12-21T09:49:48.433Z,1003.94
2018-12-21T09:50:48.422Z,1003.91
2018-12-21T09:51:48.416Z,1003.92
2018-12-21T09:52:48.399Z,1003.91
2018-12-21T09:53:48.401Z,1003.88
2018-12-21T09:54:48.377Z,1003.76
2018-12-21T09:55:48.365Z,1003.89
2018-12-21T09:56:48.353Z,1003.83
2018-12-21T09:57:48.348Z,1003.84
2018-12-21T09:58:48.350Z,1003.89
2018-12-21T09:59:48.320Z,1003.78
2018-12-21T10:00:48.309Z,1003.75
2018-12-21T10:01:48.298Z,1003.71
2018-12-21T10:02:48.299Z,1003.73
2018-12-21T10:03:48.289Z,1003.73
2018-12-21T10:04:48.264Z,1003.74
2018-12-21T10:05:48.261Z,1003.69
2018-12-21T10:06:48.244Z,1003.70
2018-12-21T10:07:48.246Z,1003.66
2018-12-21T10:08:48.246Z,1003.64
2018-12-21T10:09:48.212Z,1003.58
2018-12-21T10:10:50.521Z,1003.61
2018-12-21T10:11:48.187Z,1003.51
2018-12-21T10:12:48.178Z,1003.60
2018-12-21T10:13:48.213Z,1003.34
2018-12-21T10:14:48.174Z,1003.39
2018-12-21T10:15:48.153Z,1003.33
2018-12-21T10:16:48.133Z,1003.30
2018-12-21T10:17:48.124Z,1003.34
2018-12-21T10:18:48.113Z,1003.32
2018-12-21T10:19:48.126Z,1003.26
2018-12-21T10:20:48.095Z,1003.28
2018-12-21T10:21:48.080Z,1003.29
2018-12-21T10:22:48.169Z,1003.21
2018-12-21T10:23:48.056Z,1003.18
2018-12-21T10:24:48.056Z,1003.15
2018-12-21T10:25:48.053Z,1003.20
2018-12-21T10:26:48.024Z,1003.11
2018-12-21T10:27:48.017Z,1003.12
2018-12-21T10:28:48.004Z,1003.07
2018-12-21T10:29:48.013Z,1003.08
2018-12-21T10:30:47.984Z,1003.04
2018-12-21T10:31:47.972Z,1003.03
2018-12-21T10:32:47.960Z,1002.98
2018-12-21T10:33:47.948Z,1002.98
2018-12-21T10:34:47.955Z,1002.94
2018-12-21T10:35:47.928Z,1002.89
2018-12-21T10:36:47.917Z,1002.88
2018-12-21T10:37:47.922Z,1002.84
2018-12-21T10:38:47.895Z,1002.80
2018-12-21T10:39:47.893Z,1002.73
2018-12-21T10:40:47.872Z,1002.68
2018-12-21T10:41:47.863Z,1002.83
2018-12-21T10:42:47.851Z,1002.64
2018-12-21T10:43:47.839Z,1002.60
2018-12-21T10:44:47.839Z,1002.63
2018-12-21T10:45:47.817Z,1002.63
2018-12-21T10:46:47.810Z,1002.51
2018-12-21T10:47:47.799Z,1002.49
2018-12-21T10:48:47.793Z,1002.46
2018-12-21T10:49:47.785Z,1002.45
2018-12-21T10:50:47.763Z,1002.34
2018-12-21T10:51:47.751Z,1002.38
2018-12-21T10:52:47.744Z,1002.33
2018-12-21T10:53:47.762Z,1002.35
2018-12-21T10:54:47.730Z,1002.20
2018-12-21T10:55:47.709Z,1002.24
2018-12-21T10:56:47.701Z,1002.20
2018-12-21T10:57:47.688Z,1002.20
2018-12-21T10:58:49.813Z,1002.22
2018-12-21T10:59:47.685Z,1002.13
2018-12-21T11:00:47.654Z,1002.10
2018-12-21T11:01:47.649Z,1002.07
2018-12-21T11:02:47.633Z,1002.06
2018-12-21T11:03:47.621Z,1001.98
2018-12-21T11:04:47.645Z,1002.09
2018-12-21T11:05:47.605Z,1001.95
2018-12-21T11:06:47.591Z,1002.02
2018-12-21T11:07:47.582Z,1002.00
2018-12-21T11:08:47.568Z,1001.89
2018-12-21T11:09:47.558Z,1001.99
2018-12-21T11:10:47.566Z,1001.97
2018-12-21T11:11:47.534Z,1001.92
2018-12-21T11:12:47.525Z,1001.80
2018-12-21T11:13:47.515Z,1001.82
2018-12-21T11:14:47.501Z,1001.78
2018-12-21T11:15:47.500Z,1001.71
2018-12-21T11:16:47.479Z,1001.68
2018-12-21T11:17:47.468Z,1001.76
2018-12-21T11:18:47.457Z,1001.69
2018-12-21T11:19:47.450Z,1001.66
2018-12-21T11:20:47.455Z,1001.67
2018-12-21T11:21:47.431Z,1001.59
2018-12-21T11:22:47.411Z,1001.58
2018-12-21T11:23:47.403Z,1001.58
2018-12-21T11:24:47.392Z,1001.51
2018-12-21T11:25:47.392Z,1001.44
2018-12-21T11:26:47.371Z,1001.37
2018-12-21T11:27:47.357Z,1001.32
2018-12-21T11:28:47.350Z,1001.30
2018-12-21T11:29:49.506Z,1001.27
2018-12-21T11:30:47.356Z,1001.28
2018-12-21T11:31:47.315Z,1001.20
2018-12-21T11:32:47.305Z,1001.24
2018-12-21T11:33:47.293Z,1001.24
2018-12-21T11:34:47.283Z,1001.21
2018-12-21T11:35:47.282Z,1001.24
2018-12-21T11:36:47.261Z,1001.13
2018-12-21T11:37:47.250Z,1001.08
2018-12-21T11:38:47.245Z,1001.10
2018-12-21T11:39:47.226Z,1001.04
2018-12-21T11:40:47.234Z,1000.96
2018-12-21T11:41:47.209Z,1000.94
2018-12-21T11:42:47.195Z,1000.91
2018-12-21T11:43:47.185Z,1000.89
2018-12-21T11:44:47.178Z,1000.83
2018-12-21T11:45:47.176Z,1000.77
2018-12-21T11:46:47.210Z,1000.68
2018-12-21T11:47:47.140Z,1000.70
2018-12-21T11:48:47.129Z,1000.68
2018-12-21T11:49:47.118Z,1000.57
2018-12-21T11:50:47.121Z,1000.55
2018-12-21T11:51:47.098Z,1000.61
2018-12-21T11:52:47.087Z,1000.48
2018-12-21T11:53:47.078Z,1000.52
2018-12-21T11:54:47.067Z,1000.42
2018-12-21T11:55:47.101Z,1000.36
2018-12-21T11:56:47.045Z,1000.39
2018-12-21T11:57:47.033Z,1000.37
2018-12-21T11:58:47.020Z,1000.30
2018-12-21T11:59:47.012Z,1000.38
2018-12-21T12:00:47.001Z,1000.31
2018-12-21T12:01:47.000Z,1000.25
2018-12-21T12:02:47.021Z,1000.31
2018-12-21T12:03:46.968Z,1000.32
2018-12-21T12:04:46.964Z,1000.25
2018-12-21T12:05:46.947Z,1000.24